Time;durP1;ratioP1;P1;durP2;ratioP2;P2;SDS_P1;SDS_P2;PMS_P1;PMS_P2;Temp;Humidity;BMP_temperature;BMP_pressure;BME280_temperature;BME280_humidity;BME280_pressure;Samples;Min_cycle;Max_cycle;Signal;HPM_P1;HPM_P2
2024/01/25 04:01:22;;;;;;;;;3.00;3.00;;;;;10.97;100.00;102780.38;5953288;22;46249;-76
2024/01/25 04:03:48;;;;;;;;;7.00;3.00;;;;;11.31;100.00;102842.16;4954513;28;45690;-76
2024/01/25 04:06:13;;;;;;;;;3.00;2.00;;;;;11.33;100.00;102848.47;4959486;28;47999;-76
2024/01/25 04:08:38;;;;;;;;;3.33;1.67;;;;;11.09;100.00;102803.97;4955396;28;46503;-79
2024/01/25 04:11:04;;;;;;;;;3.00;1.00;;;;;11.36;100.00;102849.53;4957181;28;45334;-78
2024/01/25 04:13:29;;;;;;;;;2.00;1.00;;;;;11.42;100.00;102862.19;4953963;28;45476;-78
2024/01/25 04:15:54;;;;;;;;;5.00;1.33;;;;;11.09;100.00;102803.97;4958380;28;55308;-79
2024/01/25 04:18:20;;;;;;;;;1.00;0.00;;;;;11.21;100.00;102819.59;4957443;28;45348;-77
2024/01/25 04:20:46;;;;;;;;;3.33;1.00;;;;;11.40;100.00;102846.25;4941820;28;45259;-77
2024/01/25 04:23:12;;;;;;;;;4.00;1.00;;;;;11.28;100.00;102842.00;4957341;28;45398;-77
2024/01/25 04:25:37;;;;;;;;;2.33;1.00;;;;;11.22;100.00;102841.69;4960722;28;44796;-78
2024/01/25 04:28:03;;;;;;;;;1.00;1.00;;;;;11.30;100.00;102845.66;4970613;28;58363;-77
2024/01/25 04:30:28;;;;;;;;;1.33;1.33;;;;;11.27;100.00;102834.91;4974995;28;44816;-79
2024/01/25 04:32:53;;;;;;;;;3.00;1.67;;;;;11.41;100.00;102860.38;4955846;28;45174;-77
2024/01/25 04:35:18;;;;;;;;;3.00;2.00;;;;;11.25;100.00;102829.50;4959750;28;52603;-77
2024/01/25 04:37:44;;;;;;;;;4.33;2.00;;;;;11.23;100.00;102822.31;4957819;28;45494;-77
2024/01/25 04:40:09;;;;;;;;;3.00;1.00;;;;;11.31;100.00;102829.84;4959682;28;45225;-77
2024/01/25 04:42:35;;;;;;;;;3.33;3.33;;;;;11.48;100.00;102859.88;4957937;28;45344;-77
2024/01/25 04:45:00;;;;;;;;;3.33;3.33;;;;;11.18;100.00;102804.47;4959500;28;45346;-77
2024/01/25 04:47:26;;;;;;;;;7.33;5.00;;;;;11.41;100.00;102850.69;4957195;28;45536;-77
2024/01/25 04:49:51;;;;;;;;;7.67;4.67;;;;;11.31;100.00;102826.28;4941319;28;45299;-77
2024/01/25 04:52:16;;;;;;;;;10.33;6.67;;;;;11.38;100.00;102844.34;4957548;28;45280;-77
2024/01/25 04:54:42;;;;;;;;;7.00;7.00;;;;;11.29;100.00;102822.66;4959436;28;45410;-77
2024/01/25 04:57:07;;;;;;;;;13.50;9.50;;;;;11.31;100.00;102836.88;4937377;28;55927;-77
2024/01/25 04:59:33;;;;;;;;;12.50;10.75;;;;;11.40;100.00;102856.84;4959239;28;45251;-77
2024/01/25 05:01:59;;;;;;;;;19.50;13.00;;;;;11.32;100.00;102844.91;4958388;28;45257;-78
2024/01/25 05:04:24;;;;;;;;;23.25;17.00;;;;;11.17;100.00;102830.84;4954468;28;45645;-77
2024/01/25 05:06:50;;;;;;;;;11.75;11.25;;;;;11.18;100.00;102830.94;4976166;28;45610;-78
2024/01/25 05:09:15;;;;;;;;;13.25;13.00;;;;;11.21;100.00;102840.78;4960797;28;45755;-77
2024/01/25 05:11:40;;;;;;;;;14.75;11.75;;;;;11.22;100.00;102836.38;4956388;28;45330;-78
2024/01/25 05:14:06;;;;;;;;;18.00;12.50;;;;;11.19;100.00;102830.09;4977941;28;45475;-78
2024/01/25 05:16:32;;;;;;;;;14.50;13.25;;;;;11.23;100.00;102825.91;4983806;28;48137;-78
2024/01/25 05:18:57;;;;;;;;;17.00;12.50;;;;;11.25;100.00;102825.97;4981839;28;45297;-78
2024/01/25 05:21:23;;;;;;;;;19.00;14.50;;;;;11.16;100.00;102805.19;4979917;28;45462;-77
2024/01/25 05:23:48;;;;;;;;;14.50;10.75;;;;;10.71;100.00;102710.19;4980454;28;45507;-77
2024/01/25 05:26:15;;;;;;;;;15.00;12.50;;;;;10.83;100.00;102735.47;4978983;28;48682;-78
2024/01/25 05:28:40;;;;;;;;;16.75;12.50;;;;;11.16;100.00;102790.22;4983124;28;45289;-78
2024/01/25 05:31:09;;;;;;;;;18.67;12.33;;;;;11.11;100.00;102781.13;4979800;28;51448;-77
2024/01/25 05:33:34;;;;;;;;;12.33;11.67;;;;;11.18;100.00;102791.22;4985294;28;45467;-78
2024/01/25 05:36:00;;;;;;;;;20.50;14.75;;;;;11.32;100.00;102821.09;4978429;28;48024;-77
2024/01/25 05:38:25;;;;;;;;;21.25;14.75;;;;;11.11;100.00;102797.00;4978649;28;45351;-78
2024/01/25 05:40:51;;;;;;;;;16.00;14.25;;;;;11.06;100.00;102768.47;4980853;28;45344;-79
2024/01/25 05:43:16;;;;;;;;;14.00;14.00;;;;;11.27;100.00;102806.69;4978237;28;45568;-80
2024/01/25 05:45:41;;;;;;;;;16.50;13.00;;;;;11.19;100.00;102786.84;4981683;28;46387;-79
2024/01/25 05:48:07;;;;;;;;;17.50;12.25;;;;;11.36;100.00;102814.22;4975720;28;45339;-76
2024/01/25 05:50:33;;;;;;;;;15.50;12.00;;;;;11.22;100.00;102788.75;4981845;28;45251;-77
2024/01/25 05:52:58;;;;;;;;;12.75;10.00;;;;;11.34;100.00;102815.84;4975894;28;45571;-77
2024/01/25 05:55:23;;;;;;;;;20.50;16.00;;;;;11.28;100.00;102803.19;4981473;28;46193;-78
2024/01/25 05:57:49;;;;;;;;;19.00;15.00;;;;;11.41;100.00;102832.16;4961277;28;51292;-77
2024/01/25 06:00:15;;;;;;;;;16.75;16.75;;;;;11.37;100.00;102826.59;4978089;28;45163;-77
2024/01/25 06:02:41;;;;;;;;;17.75;12.00;;;;;11.41;100.00;102840.09;4957678;28;46049;-77
2024/01/25 06:05:07;;;;;;;;;15.75;14.50;;;;;11.40;100.00;102825.06;4981036;28;45261;-78
2024/01/25 06:07:33;;;;;;;;;27.25;14.25;;;;;11.25;100.00;102791.53;4979151;28;45386;-79
2024/01/25 06:09:58;;;;;;;;;20.75;16.00;;;;;11.21;100.00;102782.53;4981590;28;45350;-77
2024/01/25 06:12:23;;;;;;;;;22.00;16.00;;;;;11.26;100.00;102796.00;4977912;28;45279;-80
2024/01/25 06:14:49;;;;;;;;;18.00;18.00;;;;;11.29;100.00;102804.13;4985221;28;45235;-76
2024/01/25 06:17:14;;;;;;;;;17.25;14.00;;;;;11.36;100.00;102814.22;4980500;28;45228;-76
2024/01/25 06:19:39;;;;;;;;;16.50;15.00;;;;;11.37;100.00;102801.06;4985814;28;45648;-78
2024/01/25 06:22:04;;;;;;;;;20.75;15.00;;;;;11.34;100.00;102805.25;4977985;28;48026;-79
2024/01/25 06:24:30;;;;;;;;;24.75;17.75;;;;;11.22;100.00;102780.78;4985140;28;56504;-77
2024/01/25 06:26:55;;;;;;;;;24.50;20.75;;;;;11.26;100.00;102780.13;4956820;28;45424;-79
2024/01/25 06:29:20;;;;;;;;;23.50;23.50;;;;;11.40;100.00;102802.97;4981342;28;45312;-78
2024/01/25 06:31:46;;;;;;;;;22.00;19.75;;;;;11.42;100.00;102793.34;4977767;28;45315;-79
2024/01/25 06:34:11;;;;;;;;;25.50;21.25;;;;;11.48;100.00;102804.25;4980635;28;45968;-79
2024/01/25 06:36:37;;;;;;;;;27.00;17.50;;;;;11.55;100.00;102811.72;4960658;28;45725;-78
2024/01/25 06:39:06;;;;;;;;;26.25;21.25;;;;;11.52;100.00;102806.25;4980819;28;45286;-79
2024/01/25 06:41:31;;;;;;;;;18.75;16.50;;;;;11.63;100.00;102828.91;4961211;28;45507;-79
2024/01/25 06:43:57;;;;;;;;;26.00;24.00;;;;;11.52;100.00;102813.28;4979304;28;45296;-79
2024/01/25 06:46:22;;;;;;;;;22.50;19.75;;;;;11.67;100.00;102835.28;4977879;28;51655;-79
2024/01/25 06:48:50;;;;;;;;;24.75;19.00;;;;;11.60;100.00;102815.50;4977402;28;45339;-79
2024/01/25 06:51:15;;;;;;;;;22.00;18.25;;;;;11.34;100.00;102768.19;4979952;28;45274;-79
2024/01/25 06:53:40;;;;;;;;;24.25;23.00;;;;;11.61;100.00;102816.41;4976463;28;56462;-79
2024/01/25 06:56:06;;;;;;;;;27.75;22.25;;;;;11.63;100.00;102802.44;4978391;28;57844;-78
2024/01/25 06:58:32;;;;;;;;;30.00;25.50;;;;;11.42;100.00;102772.16;4971088;28;45448;-76
2024/01/25 07:00:57;;;;;;;;;30.50;18.50;;;;;11.67;100.00;102814.09;4980156;28;45590;-79
2024/01/25 07:03:22;;;;;;;;;19.25;17.50;;;;;11.72;100.00;102816.97;4974399;28;46293;-76
2024/01/25 07:05:48;;;;;;;;;23.50;20.50;;;;;11.72;100.00;102804.66;4979025;28;45493;-75
2024/01/25 07:08:13;;;;;;;;;24.00;23.75;;;;;11.39;100.00;102743.78;4975129;28;45485;-75
2024/01/25 07:10:39;;;;;;;;;25.75;20.25;;;;;11.42;100.00;102766.88;4985999;28;45319;-75
2024/01/25 07:13:05;;;;;;;;;20.50;18.25;;;;;11.75;100.00;102806.53;4974379;28;45399;-75
2024/01/25 07:15:30;;;;;;;;;24.00;19.50;;;;;11.77;100.00;102812.84;4980401;28;45449;-74
2024/01/25 07:17:56;;;;;;;;;26.00;23.50;;;;;11.46;100.00;102750.31;4974010;28;45417;-75
2024/01/25 07:20:21;;;;;;;;;27.25;23.25;;;;;11.56;100.00;102775.53;4979869;28;45636;-75
2024/01/25 07:22:46;;;;;;;;;26.00;21.50;;;;;11.70;100.00;102800.09;4975059;28;64724;-77
2024/01/25 07:25:12;;;;;;;;;22.25;19.25;;;;;11.65;100.00;102794.56;4980080;28;45299;-75
2024/01/25 07:27:37;;;;;;;;;21.00;17.75;;;;;11.78;100.00;102809.34;4977137;28;45387;-76
2024/01/25 07:30:02;;;;;;;;;18.50;18.50;;;;;11.69;100.00;102785.03;4979948;28;45217;-76
2024/01/25 07:32:28;;;;;;;;;19.50;18.75;;;;;11.65;100.00;102798.13;4957598;28;47301;-75
2024/01/25 07:34:54;;;;;;;;;27.25;23.50;;;;;11.63;100.00;102788.28;4961870;28;45280;-75
2024/01/25 07:37:19;;;;;;;;;27.75;22.75;;;;;11.79;100.00;102821.75;4974819;28;45756;-75
2024/01/25 07:39:45;;;;;;;;;19.50;18.75;;;;;11.74;100.00;102804.72;4979943;28;45278;-76
2024/01/25 07:42:11;;;;;;;;;23.75;17.75;;;;;11.67;100.00;102790.25;4959029;28;46569;-75
2024/01/25 07:44:36;;;;;;;;;22.50;18.50;;;;;11.81;100.00;102817.44;4981543;28;45272;-74
2024/01/25 07:47:02;;;;;;;;;22.25;18.50;;;;;11.58;100.00;102760.63;4974465;28;45291;-75
2024/01/25 07:49:27;;;;;;;;;16.75;16.50;;;;;11.42;100.00;102736.00;4979850;28;45418;-77
2024/01/25 07:51:52;;;;;;;;;18.75;17.50;;;;;11.72;100.00;102787.84;4956856;28;46003;-75
2024/01/25 07:54:18;;;;;;;;;22.75;19.75;;;;;11.85;100.00;102798.25;4979318;28;45267;-74
2024/01/25 07:56:43;;;;;;;;;25.50;19.50;;;;;11.84;100.00;102793.75;4976498;28;46419;-75
2024/01/25 07:59:08;;;;;;;;;30.75;27.00;;;;;11.77;100.00;102781.94;4979312;28;47299;-73
2024/01/25 08:01:34;;;;;;;;;25.00;22.50;;;;;11.94;100.00;102809.34;4975038;28;47612;-73
2024/01/25 08:03:59;;;;;;;;;28.75;25.75;;;;;11.90;100.00;102796.75;4973622;28;45421;-77
2024/01/25 08:06:26;;;;;;;;;29.25;21.25;;;;;11.96;100.00;102805.03;4976667;28;45429;-76
2024/01/25 08:08:51;;;;;;;;;38.25;28.00;;;;;11.92;100.00;102787.16;4983362;28;45473;-73
2024/01/25 08:11:19;;;;;;;;;28.00;26.50;;;;;11.82;100.00;102769.84;4982252;28;46170;-74
2024/01/25 08:13:45;;;;;;;;;42.00;36.00;;;;;11.97;100.00;102784.75;4975760;28;45685;-73
2024/01/25 08:16:11;;;;;;;;;40.25;33.75;;;;;12.05;100.00;102796.63;4977211;28;45460;-74
2024/01/25 08:18:36;;;;;;;;;25.50;20.00;;;;;12.06;100.00;102796.69;4960896;28;45767;-74
2024/01/25 08:21:02;;;;;;;;;26.50;20.25;;;;;12.15;100.00;102808.59;4960484;28;46443;-75
2024/01/25 08:23:27;;;;;;;;;38.75;35.25;;;;;11.94;100.00;102769.59;4976775;28;45427;-77
2024/01/25 08:25:53;;;;;;;;;27.75;23.00;;;;;12.13;100.00;102794.34;4961416;28;45262;-77
2024/01/25 08:28:19;;;;;;;;;21.25;20.00;;;;;11.97;100.00;102769.75;4977097;28;45502;-74
2024/01/25 08:30:45;;;;;;;;;26.50;20.75;;;;;12.17;100.00;102799.88;4974337;28;47006;-74
2024/01/25 08:33:10;;;;;;;;;18.33;17.00;;;;;12.26;100.00;102812.69;4975916;28;45195;-74
2024/01/25 08:35:36;;;;;;;;;25.25;20.50;;;;;12.26;100.00;102802.09;4979912;28;45227;-77
2024/01/25 08:38:01;;;;;;;;;23.00;16.50;;;;;12.21;100.00;102785.03;4974322;28;45624;-77
2024/01/25 08:40:26;;;;;;;;;23.25;20.00;;;;;12.18;100.00;102771.63;4958549;28;47561;-75
2024/01/25 08:42:51;;;;;;;;;21.25;18.75;;;;;12.29;100.00;102786.31;4975357;28;45237;-77
2024/01/25 08:45:17;;;;;;;;;19.67;18.00;;;;;12.49;100.00;102811.16;4979699;28;45902;-77
2024/01/25 08:47:45;;;;;;;;;22.50;17.50;;;;;12.48;100.00;102804.97;4972943;28;64663;-74
2024/01/25 08:50:11;;;;;;;;;17.33;16.00;;;;;12.50;100.00;102795.34;4981097;28;45373;-74
2024/01/25 08:52:37;;;;;;;;;17.67;15.00;;;;;12.50;100.00;102794.44;4957216;28;45334;-77
2024/01/25 08:55:04;;;;;;;;;16.00;14.33;;;;;12.58;100.00;102800.13;4982700;28;45254;-75
2024/01/25 08:57:30;;;;;;;;;17.00;12.67;;;;;12.64;100.00;102805.72;4972475;28;45498;-75
2024/01/25 08:59:58;;;;;;;;;12.67;11.33;;;;;12.63;100.00;102801.22;4978140;28;45654;-75
2024/01/25 09:02:26;;;;;;;;;14.00;9.33;;;;;12.57;100.00;102783.28;4980569;28;45397;-75
2024/01/25 09:04:53;;;;;;;;;16.00;12.67;;;;;12.71;100.00;102810.47;4965199;28;45365;-76
2024/01/25 09:07:19;;;;;;;;;14.00;12.33;;;;;12.73;100.00;102807.06;4979580;28;45527;-75
2024/01/25 09:09:44;;;;;;;;;13.00;12.00;;;;;12.64;100.00;102785.41;4983675;28;45472;-75
2024/01/25 09:12:11;;;;;;;;;13.67;12.67;;;;;12.77;100.00;102795.75;4980235;28;50563;-75
2024/01/25 09:14:36;;;;;;;;;16.00;11.33;;;;;12.71;100.00;102786.59;4982635;28;45191;-75
2024/01/25 09:17:02;;;;;;;;;10.67;10.33;;;;;12.83;100.00;102797.78;4961525;28;46201;-75
2024/01/25 09:19:27;;;;;;;;;15.67;13.67;;;;;12.95;100.00;102818.69;4982242;28;45296;-75
2024/01/25 09:21:52;;;;;;;;;10.33;7.00;;;;;12.85;100.00;102803.16;4960791;28;57895;-75
2024/01/25 09:24:18;;;;;;;;;14.67;12.33;;;;;12.91;100.00;102803.44;4982375;28;45139;-75
2024/01/25 09:26:43;;;;;;;;;13.00;13.00;;;;;12.98;100.00;102822.41;4979206;28;45502;-75
2024/01/25 09:29:09;;;;;;;;;15.67;10.33;;;;;12.96;100.00;102800.16;4977706;28;58981;-75
2024/01/25 09:31:34;;;;;;;;;12.00;11.00;;;;;12.99;100.00;102799.41;4979736;28;45405;-75
2024/01/25 09:34:00;;;;;;;;;14.00;11.67;;;;;13.09;100.00;102814.94;4982078;28;45392;-76
2024/01/25 09:36:25;;;;;;;;;16.33;9.67;;;;;12.86;100.00;102767.84;4979456;28;45489;-76
2024/01/25 09:38:50;;;;;;;;;16.67;11.00;;;;;13.00;100.00;102774.69;4980229;28;45666;-75
2024/01/25 09:41:16;;;;;;;;;14.00;11.00;;;;;12.99;100.00;102773.78;4984473;28;63816;-75
2024/01/25 09:43:41;;;;;;;;;13.00;11.67;;;;;12.94;100.00;102761.16;4980535;28;45243;-76
2024/01/25 09:46:07;;;;;;;;;13.00;12.00;;;;;13.17;100.00;102799.38;4962690;28;45741;-75
2024/01/25 09:48:33;;;;;;;;;12.33;10.00;;;;;13.19;100.00;102787.03;4977418;28;46463;-75
2024/01/25 09:50:59;;;;;;;;;8.00;6.00;;;;;13.02;100.00;102765.03;4980349;28;45453;-75
2024/01/25 09:53:24;;;;;;;;;11.33;9.33;;;;;13.15;100.00;102787.75;4977738;28;45162;-75
2024/01/25 09:56:10;;;;;;;;;10.00;7.33;;;;;13.27;100.00;102796.28;4981424;28;45504;-75
2024/01/25 09:58:45;;;;;;;;;14.33;11.00;;;;;13.23;100.00;102798.72;4980655;28;45554;-76
2024/01/25 10:01:12;;;;;;;;;12.33;6.67;;;;;13.25;100.00;102807.66;4978106;28;45315;-75
2024/01/25 10:03:40;;;;;;;;;11.33;7.00;;;;;13.29;100.00;102813.22;4963800;28;45276;-75
2024/01/25 10:06:05;;;;;;;;;9.67;7.67;;;;;13.15;100.00;102780.69;4979758;28;45493;-76
2024/01/25 10:08:31;;;;;;;;;8.33;8.33;;;;;13.20;100.00;102794.19;4979631;28;45397;-76
2024/01/25 10:10:56;;;;;;;;;9.00;9.00;;;;;13.22;100.00;102803.16;4980739;28;47277;-76
2024/01/25 10:13:22;;;;;;;;;11.33;10.00;;;;;13.34;100.00;102813.44;4979839;28;45314;-76
2024/01/25 10:15:48;;;;;;;;;8.00;8.00;;;;;13.09;100.00;102774.22;4981625;28;45449;-76
2024/01/25 10:18:14;;;;;;;;;8.00;6.33;;;;;12.89;100.00;102730.81;4976125;28;45510;-76
2024/01/25 10:20:42;;;;;;;;;9.00;7.00;;;;;13.36;100.00;102814.41;4981586;28;45319;-76
2024/01/25 10:23:08;;;;;;;;;7.00;7.00;;;;;13.47;100.00;102815.81;4960037;28;45378;-76
2024/01/25 10:25:37;;;;;;;;;12.00;9.00;;;;;13.42;100.00;102810.28;4981543;28;45263;-76
2024/01/25 10:28:06;;;;;;;;;12.33;8.00;;;;;13.47;100.00;102818.47;4977796;28;45562;-76
2024/01/25 10:30:34;;;;;;;;;9.33;9.00;;;;;13.51;100.00;102823.06;4981476;28;45228;-76
2024/01/25 10:33:00;;;;;;;;;9.00;8.00;;;;;13.47;100.00;102804.25;4978500;28;45373;-76
2024/01/25 10:35:26;;;;;;;;;7.67;5.00;;;;;13.38;100.00;102783.50;4973880;28;45323;-76
2024/01/25 10:37:52;;;;;;;;;10.00;8.00;;;;;13.55;100.00;102809.06;4976383;28;46474;-76
2024/01/25 10:40:19;;;;;;;;;12.00;11.33;;;;;13.63;100.00;102814.72;4981305;28;45420;-75
2024/01/25 10:42:44;;;;;;;;;11.00;10.00;;;;;13.46;100.00;102776.78;4977776;28;45352;-75
2024/01/25 10:45:10;;;;;;;;;7.00;6.00;;;;;13.65;100.00;102805.09;4981408;28;45223;-76
2024/01/25 10:47:37;;;;;;;;;8.33;8.33;;;;;13.75;100.00;102807.31;4974873;28;46329;-75
2024/01/25 10:50:04;;;;;;;;;7.67;7.67;;;;;13.77;100.00;102791.41;4981445;28;45389;-75
2024/01/25 10:52:31;;;;;;;;;9.67;7.00;;;;;13.81;100.00;102788.97;4955096;28;45275;-75
2024/01/25 10:54:57;;;;;;;;;14.00;9.33;;;;;13.79;100.00;102776.44;4984095;28;45307;-76
2024/01/25 10:57:23;;;;;;;;;10.67;7.33;;;;;13.90;100.00;102792.88;4984024;28;45322;-76
2024/01/25 10:59:48;;;;;;;;;7.67;7.67;;;;;13.97;100.00;102806.47;4975227;28;45284;-75
2024/01/25 11:02:14;;;;;;;;;13.67;10.33;;;;;13.87;100.00;102775.03;4977740;28;45497;-75
2024/01/25 11:04:39;;;;;;;;;9.00;7.33;;;;;13.83;100.00;102751.78;4975221;28;45365;-75
2024/01/25 11:07:09;;;;;;;;;10.00;6.67;;;;;14.09;100.00;102779.50;4960582;28;46634;-75
2024/01/25 11:09:38;;;;;;;;;9.00;7.67;;;;;13.84;100.00;102719.97;4980469;28;45322;-75
2024/01/25 11:12:15;;;;;;;;;9.00;7.00;;;;;14.18;100.00;102771.91;4971532;28;45455;-75
2024/01/25 11:14:40;;;;;;;;;10.33;7.67;;;;;14.17;100.00;102743.50;4980652;28;45160;-75
2024/01/25 11:17:26;;;;;;;;;10.33;7.00;;;;;14.28;100.00;102754.53;4959208;28;47533;-74
2024/01/25 11:19:51;;;;;;;;;9.33;8.33;;;;;14.10;100.00;102699.78;4979828;28;45347;-74
2024/01/25 11:22:17;;;;;;;;;10.00;6.00;;;;;14.41;100.00;102722.28;4975840;28;45311;-74
2024/01/25 11:24:43;;;;;;;;;8.00;7.00;;;;;14.44;100.00;102706.44;4980604;28;45469;-75
2024/01/25 11:27:10;;;;;;;;;11.00;8.00;;;;;14.41;100.00;102692.09;4976744;28;45270;-74
2024/01/25 11:29:37;;;;;;;;;31.00;23.00;;;;;14.48;100.00;102689.75;4962063;28;45323;-75
2024/01/25 11:32:04;;;;;;;;;82.50;77.50;;;;;14.44;100.00;102682.47;4978178;28;45323;-74
2024/01/25 11:34:31;;;;;;;;;20.67;16.67;;;;;14.23;100.00;102640.00;4966149;28;46261;-76
2024/01/25 11:36:57;;;;;;;;;26.33;22.00;;;;;14.33;100.00;102644.81;4959525;28;45969;-75
2024/01/25 11:39:23;;;;;;;;;13.67;11.33;;;;;14.24;100.00;102632.91;4983188;28;45398;-76
2024/01/25 11:41:51;;;;;;;;;10.33;7.00;;;;;14.57;100.00;102688.31;4979843;28;45235;-75
2024/01/25 11:44:16;;;;;;;;;10.33;8.00;;;;;14.54;100.00;102666.06;4981767;28;45703;-73
2024/01/25 11:46:42;;;;;;;;;10.67;7.67;;;;;14.69;100.00;102684.34;4976906;28;46149;-76
2024/01/25 11:49:07;;;;;;;;;9.67;8.00;;;;;14.60;100.00;102673.38;4980560;28;45469;-76
2024/01/25 11:51:33;;;;;;;;;6.00;5.00;;;;;14.70;100.00;102687.91;4959774;28;45664;-77
2024/01/25 11:53:59;;;;;;;;;11.00;6.00;;;;;14.65;100.00;102666.47;4980539;28;45553;-76
2024/01/25 11:56:39;;;;;;;;;6.00;6.00;;;;;14.77;100.00;102679.31;4977605;28;45741;-75
2024/01/25 11:59:04;;;;;;;;;7.00;7.00;;;;;14.58;100.00;102634.25;4977800;28;45413;-76
2024/01/25 12:01:30;;;;;;;;;9.00;5.00;;;;;14.92;100.00;102671.88;4977158;28;45211;-74
2024/01/25 12:03:56;;;;;;;;;9.67;5.67;;;;;14.85;100.00;102640.59;4955514;28;45554;-74
2024/01/25 12:06:21;;;;;;;;;9.33;6.33;;;;;14.43;100.00;102562.69;4957670;28;46528;-76
2024/01/25 12:08:48;;;;;;;;;8.33;4.67;;;;;14.92;100.00;102650.59;4955994;28;45451;-76
2024/01/25 12:11:14;;;;;;;;;7.00;6.00;;;;;14.84;100.00;102638.75;4956554;28;45585;-75
2024/01/25 12:13:41;;;;;;;;;10.33;7.33;;;;;14.85;100.00;102637.91;4959782;28;45350;-76
2024/01/25 12:16:08;;;;;;;;;8.33;6.67;;;;;14.78;100.00;102617.22;4956537;28;46914;-76
2024/01/25 12:18:35;;;;;;;;;8.00;6.00;;;;;14.89;100.00;102629.19;4956683;28;45469;-75
2024/01/25 12:21:02;;;;;;;;;7.67;5.00;;;;;14.89;100.00;102621.19;4959638;28;45286;-76
2024/01/25 12:23:32;;;;;;;;;6.00;4.33;;;;;15.05;100.00;102627.06;4958281;28;46239;-76
2024/01/25 12:26:03;;;;;;;;;6.00;5.33;;;;;15.07;100.00;102628.00;4958941;28;46029;-77
2024/01/25 12:28:30;;;;;;;;;9.00;9.00;;;;;15.16;100.00;102631.03;4956960;28;45331;-75
2024/01/25 12:30:56;;;;;;;;;8.00;6.00;;;;;14.91;100.00;102582.22;4959494;28;45624;-75
2024/01/25 12:33:22;;;;;;;;;4.33;3.33;;;;;15.05;100.00;102606.66;4955481;28;45263;-75
2024/01/25 12:35:47;;;;;;;;;4.67;2.33;;;;;15.02;100.00;102582.59;4959839;28;45327;-75
2024/01/25 12:38:12;;;;;;;;;5.00;4.00;;;;;15.14;100.00;102614.06;4955466;28;54829;-75
2024/01/25 12:40:38;;;;;;;;;6.00;5.00;;;;;15.04;100.00;102595.94;4958650;28;45363;-75
2024/01/25 12:43:04;;;;;;;;;6.67;4.00;;;;;15.15;100.00;102605.22;4953941;28;45326;-75
2024/01/25 12:45:29;;;;;;;;;6.33;4.67;;;;;15.25;100.00;102606.44;4960127;28;45501;-75
2024/01/25 12:47:55;;;;;;;;;4.00;2.67;;;;;15.11;100.00;102574.00;4956602;28;45283;-75
2024/01/25 12:50:20;;;;;;;;;3.00;3.00;;;;;15.07;100.00;102573.00;4959763;28;45167;-75
2024/01/25 12:52:46;;;;;;;;;3.33;2.33;;;;;15.14;100.00;102591.00;4958006;28;45577;-75
2024/01/25 12:55:12;;;;;;;;;1.33;1.33;;;;;15.15;100.00;102611.47;4959592;28;45742;-75
2024/01/25 12:57:37;;;;;;;;;2.00;2.00;;;;;15.10;100.00;102610.41;4955849;28;45326;-75
2024/01/25 13:00:03;;;;;;;;;4.00;4.00;;;;;14.77;100.00;102560.44;4959760;28;45254;-74
2024/01/25 13:02:29;;;;;;;;;4.00;4.00;;;;;14.86;100.00;102577.59;4961185;28;45551;-75
2024/01/25 13:04:54;;;;;;;;;3.00;2.00;;;;;14.69;100.00;102551.25;4978574;28;57666;-75
2024/01/25 13:07:20;;;;;;;;;3.33;3.33;;;;;14.95;100.00;102592.09;4976161;28;45396;-75
2024/01/25 13:09:45;;;;;;;;;3.67;3.67;;;;;14.96;100.00;102580.63;4979258;28;45996;-74
2024/01/25 13:12:11;;;;;;;;;4.67;3.00;;;;;14.77;100.00;102546.22;4958473;28;46697;-75
2024/01/25 13:14:36;;;;;;;;;3.67;2.00;;;;;14.77;100.00;102536.47;4979099;28;46647;-74
2024/01/25 13:17:01;;;;;;;;;2.67;2.67;;;;;14.73;100.00;102523.00;4956802;28;60899;-77
2024/01/25 13:19:26;;;;;;;;;3.00;3.00;;;;;14.89;100.00;102554.63;4978952;28;45238;-76
2024/01/25 13:21:52;;;;;;;;;3.00;3.00;;;;;14.74;100.00;102528.38;4975576;28;60521;-76
2024/01/25 13:24:18;;;;;;;;;4.00;3.00;;;;;14.89;100.00;102551.06;4978681;28;46493;-76
2024/01/25 13:26:43;;;;;;;;;2.67;2.33;;;;;14.80;100.00;102524.13;4975966;28;45638;-77
2024/01/25 13:29:12;;;;;;;;;3.00;2.67;;;;;14.87;100.00;102536.78;4961199;28;45299;-76
2024/01/25 13:31:38;;;;;;;;;2.67;2.67;;;;;14.63;100.00;102486.28;4976637;28;45368;-75
2024/01/25 13:34:03;;;;;;;;;3.33;2.00;;;;;14.89;100.00;102532.41;4978621;28;46118;-76
2024/01/25 13:36:29;;;;;;;;;2.33;2.00;;;;;14.97;100.00;102539.81;4979308;28;45378;-76
2024/01/25 13:38:54;;;;;;;;;4.00;2.67;;;;;14.69;100.00;102490.03;4985029;28;48127;-77
2024/01/25 13:41:19;;;;;;;;;3.00;3.00;;;;;14.96;100.00;102538.03;4981233;28;45441;-77
2024/01/25 13:43:45;;;;;;;;;5.00;3.67;;;;;14.88;100.00;102526.19;4980840;28;53038;-76
2024/01/25 13:46:10;;;;;;;;;2.67;2.67;;;;;14.73;100.00;102499.03;4971629;28;58258;-76
2024/01/25 13:48:35;;;;;;;;;2.67;2.00;;;;;14.60;100.00;102486.16;4980739;28;45346;-76
2024/01/25 13:51:00;;;;;;;;;3.00;1.33;;;;;14.67;100.00;102490.84;4984742;28;45314;-76
2024/01/25 13:53:26;;;;;;;;;4.00;3.00;;;;;14.75;100.00;102511.53;4978563;28;60544;-76
2024/01/25 13:55:51;;;;;;;;;2.00;2.00;;;;;14.71;100.00;102501.66;4981868;28;46055;-76
2024/01/25 13:58:16;;;;;;;;;2.67;2.67;;;;;14.80;100.00;102524.13;4979309;28;45435;-77
2024/01/25 14:00:41;;;;;;;;;2.00;2.00;;;;;14.67;100.00;102507.72;4968710;28;60418;-75
2024/01/25 14:03:07;;;;;;;;;2.00;2.00;;;;;14.69;100.00;102507.78;4973629;28;46320;-76
2024/01/25 14:05:32;;;;;;;;;1.33;1.33;;;;;14.77;100.00;102525.81;4980995;28;45277;-76
2024/01/25 14:07:59;;;;;;;;;3.67;2.33;;;;;14.62;100.00;102497.75;4976316;28;53969;-76
2024/01/25 14:10:27;;;;;;;;;1.67;1.67;;;;;14.63;100.00;102494.25;4962701;28;45517;-78
2024/01/25 14:12:53;;;;;;;;;3.33;2.00;;;;;14.63;100.00;102492.50;4974890;28;45506;-76
2024/01/25 14:15:18;;;;;;;;;2.00;2.00;;;;;14.63;100.00;102483.63;4981602;28;45343;-76
2024/01/25 14:17:43;;;;;;;;;2.00;2.00;;;;;14.73;100.00;102504.34;4976598;28;45369;-77
2024/01/25 14:20:09;;;;;;;;;3.67;2.00;;;;;14.57;100.00;102467.44;4981070;28;54788;-75
2024/01/25 14:22:35;;;;;;;;;2.67;2.00;;;;;14.52;100.00;102470.81;4956497;28;46253;-75
2024/01/25 14:25:00;;;;;;;;;2.33;1.33;;;;;14.33;100.00;102439.97;4975797;28;45272;-75
2024/01/25 14:27:26;;;;;;;;;1.67;1.67;;;;;14.69;100.00;102494.47;4978280;28;51510;-76
2024/01/25 14:29:51;;;;;;;;;5.33;3.00;;;;;14.50;100.00;102480.47;4981403;28;45165;-76
2024/01/25 14:32:19;;;;;;;;;2.00;1.00;;;;;14.65;100.00;102506.78;4961427;28;48438;-79
2024/01/25 14:34:44;;;;;;;;;1.33;1.33;;;;;14.45;100.00;102471.44;4963030;28;45466;-77
2024/01/25 14:37:10;;;;;;;;;4.00;2.67;;;;;14.58;100.00;102503.84;4979335;28;45158;-76
2024/01/25 14:39:38;;;;;;;;;1.00;1.00;;;;;14.58;100.00;102510.06;4981310;28;45355;-76
2024/01/25 14:42:09;;;;;;;;;2.00;2.00;;;;;14.46;100.00;102488.31;4977989;28;47467;-77
2024/01/25 14:44:34;;;;;;;;;2.67;2.67;;;;;14.35;100.00;102466.63;4977029;28;45561;-76
2024/01/25 14:46:59;;;;;;;;;3.00;1.33;;;;;14.47;100.00;102495.44;4975159;28;52575;-76
2024/01/25 14:49:25;;;;;;;;;2.00;2.00;;;;;14.39;100.00;102492.50;4982754;28;45318;-77
2024/01/25 14:51:50;;;;;;;;;2.67;2.67;;;;;14.54;100.00;102519.69;4978921;28;46168;-76
2024/01/25 14:54:15;;;;;;;;;3.33;1.67;;;;;14.45;100.00;102507.75;4971400;28;45247;-76
2024/01/25 14:56:41;;;;;;;;;4.00;4.00;;;;;14.42;100.00;102508.56;4976587;28;52161;-76
2024/01/25 14:59:06;;;;;;;;;2.00;2.00;;;;;14.46;100.00;102515.81;4978688;28;46009;-76
2024/01/25 15:01:31;;;;;;;;;1.33;1.33;;;;;14.41;100.00;102503.19;4976216;28;47228;-76
2024/01/25 15:03:57;;;;;;;;;2.00;2.00;;;;;14.48;100.00;102524.78;4976646;28;51639;-78